Villa Soto, Puerto Rico
Current Conditions -  °F | °C
As of 9:50 AM on Sunday 21 Dec 2014 (Local Time) from TJBQ Reporting Station
Few Clouds Few Clouds  
Wind Chill: 81°   Ceiling: Unl
Heat Index: 83°   Visibility: 10mi
Dew Point: 68°   Wind: 16mph
Humidity: 65%   Direction: 100°E
Pressure: 30.11"   Gusts: 24mph
Location:  18.3946°N, 67.1158°W
Report Text: TJBQ 211350Z 10014G21KT 10SM FEW030 27/20 A3011 RMK RWY 8 ATIS Y
Loading
Personal Weather Stations






























Interactive Weather Map New forecast layout! Learn more

10-Day Weather Forecast

Advertisements
Track Severe Weather on mobile